MMTG/TGZ METAR and TAF weather

Enter ICAO airport designator
Station Type Date Time Source
MMTG METAR 2022/06/26 06:15 UTC NOAA

MMTG 260615Z RTD 21003KT 7SM FEW090 SCT300 22/21 A3001 RMK SLP129 51013 955 8/058


Station Type Date Time Source
MMTG Decoded METAR 2022/06/26 06:15 UTC NOAA

Tuxtla Gutierrez, Chis., Mexico (MMTG) 16-45N 093-07W
Jun 26, 2022 - 02:15 AM EDT / 2022.06.26 0615 UTC
Wind: from the SSW (210 degrees) at 3 MPH (3 KT):0
Visibility: 7 mile(s):0
Sky conditions: partly cloudy
Temperature: 71 F (22 C)
Dew Point: 69 F (21 C)
Relative Humidity: 94%
Pressure (altimeter): 30.01 in. Hg (1016 hPa)
Pressure tendency: 0.04 inches (1.3 hPa) higher than three hours ago
ob: MMTG 260615Z RTD 21003KT 7SM FEW090 SCT300 22/21 A3001 RMK SLP129 51013 955 8/058
cycle: 6

Station Type Date Time Source
MMTG TAF 2022/06/26 06:37 UTC NOAA

TAF MMTG 260430Z 2606/2706 00000KT P6SM SCT040 SCT090 BKN250
TEMPO 2611/2615 4SM HZ SCT010
FM261800 33012KT P6SM SCT030 BKN080 BKN250
FM262300 30008KT 5SM TSRA BKN030CB BKN090 OVC250
TEMPO 2701/2705 3SM TSRA BKN020CB

Example: see airport list